sensor_id;sensor_type;location;lat;lon;timestamp;pressure;altitude;pressure_sealevel;temperature;humidity
57024;BME280;42916;54.346;18.562;2023-03-25T00:02:25;98966.92;;;6.11;100.00
57024;BME280;42916;54.346;18.562;2023-03-25T00:04:53;98971.00;;;6.11;100.00
57024;BME280;42916;54.346;18.562;2023-03-25T00:07:20;98973.12;;;6.10;100.00
57024;BME280;42916;54.346;18.562;2023-03-25T00:09:48;98966.73;;;6.08;100.00
57024;BME280;42916;54.346;18.562;2023-03-25T00:12:16;98965.59;;;6.07;100.00
57024;BME280;42916;54.346;18.562;2023-03-25T00:14:43;98965.48;;;6.06;100.00
57024;BME280;42916;54.346;18.562;2023-03-25T00:17:09;98959.16;;;6.05;100.00
57024;BME280;42916;54.346;18.562;2023-03-25T00:19:39;98954.73;;;6.06;100.00
57024;BME280;42916;54.346;18.562;2023-03-25T00:22:06;98950.73;;;6.06;100.00
57024;BME280;42916;54.346;18.562;2023-03-25T00:24:34;98943.33;;;6.06;100.00
57024;BME280;42916;54.346;18.562;2023-03-25T00:27:01;98947.13;;;6.07;100.00
57024;BME280;42916;54.346;18.562;2023-03-25T00:29:28;98944.11;;;6.08;100.00
57024;BME280;42916;54.346;18.562;2023-03-25T00:31:54;98943.79;;;6.09;100.00
57024;BME280;42916;54.346;18.562;2023-03-25T00:34:21;98941.97;;;6.10;100.00
57024;BME280;42916;54.346;18.562;2023-03-25T00:36:48;98943.80;;;6.11;100.00
57024;BME280;42916;54.346;18.562;2023-03-25T00:39:15;98942.36;;;6.12;100.00
57024;BME280;42916;54.346;18.562;2023-03-25T00:41:42;98940.08;;;6.10;100.00
57024;BME280;42916;54.346;18.562;2023-03-25T00:44:10;98937.58;;;6.09;100.00
57024;BME280;42916;54.346;18.562;2023-03-25T00:46:38;98933.42;;;6.07;100.00
57024;BME280;42916;54.346;18.562;2023-03-25T00:49:04;98934.11;;;6.07;100.00
57024;BME280;42916;54.346;18.562;2023-03-25T00:51:31;98929.07;;;6.05;100.00
57024;BME280;42916;54.346;18.562;2023-03-25T00:53:59;98921.89;;;6.04;100.00
57024;BME280;42916;54.346;18.562;2023-03-25T00:56:26;98917.80;;;6.06;100.00
57024;BME280;42916;54.346;18.562;2023-03-25T00:58:54;98911.92;;;6.08;100.00
57024;BME280;42916;54.346;18.562;2023-03-25T01:01:24;98915.34;;;6.11;100.00
57024;BME280;42916;54.346;18.562;2023-03-25T01:03:54;98908.39;;;6.12;100.00
57024;BME280;42916;54.346;18.562;2023-03-25T01:06:28;98904.95;;;6.15;100.00
57024;BME280;42916;54.346;18.562;2023-03-25T01:08:59;98905.34;;;6.17;100.00
57024;BME280;42916;54.346;18.562;2023-03-25T01:11:28;98904.14;;;6.18;100.00
57024;BME280;42916;54.346;18.562;2023-03-25T01:13:56;98903.34;;;6.19;100.00
57024;BME280;42916;54.346;18.562;2023-03-25T01:16:25;98904.96;;;6.19;100.00
57024;BME280;42916;54.346;18.562;2023-03-25T01:18:53;98898.70;;;6.20;100.00
57024;BME280;42916;54.346;18.562;2023-03-25T01:21:20;98888.27;;;6.20;100.00
57024;BME280;42916;54.346;18.562;2023-03-25T01:23:47;98882.77;;;6.20;100.00
57024;BME280;42916;54.346;18.562;2023-03-25T01:26:15;98884.27;;;6.20;100.00
57024;BME280;42916;54.346;18.562;2023-03-25T01:28:43;98887.84;;;6.20;100.00
57024;BME280;42916;54.346;18.562;2023-03-25T01:31:13;98889.56;;;6.19;100.00
57024;BME280;42916;54.346;18.562;2023-03-25T01:33:40;98887.73;;;6.17;100.00
57024;BME280;42916;54.346;18.562;2023-03-25T01:36:07;98894.48;;;6.16;100.00
57024;BME280;42916;54.346;18.562;2023-03-25T01:38:39;98890.52;;;6.14;100.00
57024;BME280;42916;54.346;18.562;2023-03-25T01:41:07;98892.36;;;6.13;100.00
57024;BME280;42916;54.346;18.562;2023-03-25T01:43:35;98895.95;;;6.11;100.00
57024;BME280;42916;54.346;18.562;2023-03-25T01:46:02;98902.59;;;6.10;100.00
57024;BME280;42916;54.346;18.562;2023-03-25T01:48:33;98907.98;;;6.10;100.00
57024;BME280;42916;54.346;18.562;2023-03-25T01:51:16;98916.52;;;6.09;100.00
57024;BME280;42916;54.346;18.562;2023-03-25T01:53:44;98923.13;;;6.11;100.00
57024;BME280;42916;54.346;18.562;2023-03-25T01:56:15;98921.29;;;6.11;100.00
57024;BME280;42916;54.346;18.562;2023-03-25T01:58:44;98910.76;;;6.10;100.00
57024;BME280;42916;54.346;18.562;2023-03-25T02:01:13;98910.20;;;6.09;100.00
57024;BME280;42916;54.346;18.562;2023-03-25T02:03:42;98900.11;;;6.09;100.00
57024;BME280;42916;54.346;18.562;2023-03-25T02:06:23;98902.87;;;6.10;100.00
57024;BME280;42916;54.346;18.562;2023-03-25T02:08:55;98910.27;;;6.11;100.00
57024;BME280;42916;54.346;18.562;2023-03-25T02:11:23;98913.90;;;6.13;100.00
57024;BME280;42916;54.346;18.562;2023-03-25T02:13:56;98914.45;;;6.16;100.00
57024;BME280;42916;54.346;18.562;2023-03-25T02:20:12;98912.88;;;6.18;100.00
57024;BME280;42916;54.346;18.562;2023-03-25T02:31:30;98902.14;;;6.18;100.00
57024;BME280;42916;54.346;18.562;2023-03-25T02:39:46;98890.23;;;6.20;100.00
57024;BME280;42916;54.346;18.562;2023-03-25T02:42:21;98889.31;;;6.20;100.00
57024;BME280;42916;54.346;18.562;2023-03-25T02:47:46;98876.88;;;6.19;100.00
57024;BME280;42916;54.346;18.562;2023-03-25T02:50:26;98876.65;;;6.18;100.00
57024;BME280;42916;54.346;18.562;2023-03-25T02:52:58;98874.16;;;6.18;100.00
57024;BME280;42916;54.346;18.562;2023-03-25T02:55:28;98871.91;;;6.19;100.00
57024;BME280;42916;54.346;18.562;2023-03-25T02:58:03;98868.80;;;6.21;100.00
57024;BME280;42916;54.346;18.562;2023-03-25T03:00:32;98866.73;;;6.22;100.00
57024;BME280;42916;54.346;18.562;2023-03-25T03:03:01;98865.02;;;6.23;100.00
57024;BME280;42916;54.346;18.562;2023-03-25T03:05:37;98861.51;;;6.21;100.00
57024;BME280;42916;54.346;18.562;2023-03-25T03:16:56;98861.55;;;6.20;100.00
57024;BME280;42916;54.346;18.562;2023-03-25T03:22:15;98867.48;;;6.17;100.00
57024;BME280;42916;54.346;18.562;2023-03-25T03:24:52;98868.60;;;6.16;100.00
57024;BME280;42916;54.346;18.562;2023-03-25T03:27:30;98868.27;;;6.14;100.00
57024;BME280;42916;54.346;18.562;2023-03-25T03:30:32;98864.98;;;6.12;100.00
57024;BME280;42916;54.346;18.562;2023-03-25T03:33:18;98864.90;;;6.09;100.00
57024;BME280;42916;54.346;18.562;2023-03-25T03:35:54;98868.93;;;6.05;100.00
57024;BME280;42916;54.346;18.562;2023-03-25T03:38:28;98865.36;;;6.02;100.00
57024;BME280;42916;54.346;18.562;2023-03-25T03:41:05;98863.99;;;5.98;100.00
57024;BME280;42916;54.346;18.562;2023-03-25T03:43:57;98861.95;;;5.95;100.00
57024;BME280;42916;54.346;18.562;2023-03-25T03:46:29;98858.05;;;5.93;100.00
57024;BME280;42916;54.346;18.562;2023-03-25T03:49:00;98860.02;;;5.91;100.00
57024;BME280;42916;54.346;18.562;2023-03-25T03:51:33;98860.23;;;5.90;100.00
57024;BME280;42916;54.346;18.562;2023-03-25T03:54:02;98857.05;;;5.88;100.00
57024;BME280;42916;54.346;18.562;2023-03-25T03:56:36;98856.73;;;5.86;100.00
57024;BME280;42916;54.346;18.562;2023-03-25T03:59:13;98852.34;;;5.83;100.00
57024;BME280;42916;54.346;18.562;2023-03-25T04:01:50;98854.59;;;5.79;100.00
57024;BME280;42916;54.346;18.562;2023-03-25T04:04:21;98850.03;;;5.78;100.00
57024;BME280;42916;54.346;18.562;2023-03-25T04:09:26;98847.59;;;5.75;100.00
57024;BME280;42916;54.346;18.562;2023-03-25T04:12:03;98854.86;;;5.74;100.00
57024;BME280;42916;54.346;18.562;2023-03-25T04:14:31;98847.73;;;5.72;100.00
57024;BME280;42916;54.346;18.562;2023-03-25T04:16:58;98852.81;;;5.71;100.00
57024;BME280;42916;54.346;18.562;2023-03-25T04:19:26;98856.41;;;5.69;100.00
57024;BME280;42916;54.346;18.562;2023-03-25T04:21:53;98856.87;;;5.65;100.00
57024;BME280;42916;54.346;18.562;2023-03-25T04:24:20;98852.77;;;5.61;100.00
57024;BME280;42916;54.346;18.562;2023-03-25T04:26:47;98857.04;;;5.58;100.00
57024;BME280;42916;54.346;18.562;2023-03-25T04:29:15;98854.27;;;5.54;100.00
57024;BME280;42916;54.346;18.562;2023-03-25T04:31:42;98858.90;;;5.52;100.00
57024;BME280;42916;54.346;18.562;2023-03-25T04:34:12;98862.50;;;5.51;100.00
57024;BME280;42916;54.346;18.562;2023-03-25T04:36:40;98864.77;;;5.49;100.00
57024;BME280;42916;54.346;18.562;2023-03-25T04:39:09;98871.59;;;5.48;100.00
57024;BME280;42916;54.346;18.562;2023-03-25T04:41:38;98868.11;;;5.49;100.00
57024;BME280;42916;54.346;18.562;2023-03-25T04:44:05;98872.47;;;5.49;100.00
57024;BME280;42916;54.346;18.562;2023-03-25T04:46:35;98874.77;;;5.47;100.00
57024;BME280;42916;54.346;18.562;2023-03-25T04:49:04;98876.48;;;5.45;100.00
57024;BME280;42916;54.346;18.562;2023-03-25T04:51:40;98873.95;;;5.44;100.00
57024;BME280;42916;54.346;18.562;2023-03-25T04:54:14;98872.86;;;5.44;100.00
57024;BME280;42916;54.346;18.562;2023-03-25T04:56:41;98868.92;;;5.43;100.00
57024;BME280;42916;54.346;18.562;2023-03-25T04:59:08;98871.78;;;5.43;100.00
57024;BME280;42916;54.346;18.562;2023-03-25T05:01:37;98873.36;;;5.45;100.00
57024;BME280;42916;54.346;18.562;2023-03-25T05:04:09;98879.44;;;5.43;100.00
57024;BME280;42916;54.346;18.562;2023-03-25T05:06:40;98879.91;;;5.41;100.00
57024;BME280;42916;54.346;18.562;2023-03-25T05:09:19;98876.34;;;5.39;100.00
57024;BME280;42916;54.346;18.562;2023-03-25T05:11:51;98879.75;;;5.41;100.00
57024;BME280;42916;54.346;18.562;2023-03-25T05:14:19;98879.98;;;5.43;100.00
57024;BME280;42916;54.346;18.562;2023-03-25T05:16:47;98887.00;;;5.45;100.00
57024;BME280;42916;54.346;18.562;2023-03-25T05:19:14;98885.68;;;5.49;100.00
57024;BME280;42916;54.346;18.562;2023-03-25T05:21:41;98885.55;;;5.54;100.00
57024;BME280;42916;54.346;18.562;2023-03-25T05:24:11;98889.90;;;5.58;100.00
57024;BME280;42916;54.346;18.562;2023-03-25T05:26:40;98886.27;;;5.62;100.00
57024;BME280;42916;54.346;18.562;2023-03-25T05:29:12;98889.59;;;5.67;100.00
57024;BME280;42916;54.346;18.562;2023-03-25T05:31:44;98892.45;;;5.68;100.00
57024;BME280;42916;54.346;18.562;2023-03-25T05:34:12;98895.55;;;5.72;100.00
57024;BME280;42916;54.346;18.562;2023-03-25T05:36:40;98895.96;;;5.77;100.00
57024;BME280;42916;54.346;18.562;2023-03-25T05:39:07;98902.67;;;5.82;100.00
57024;BME280;42916;54.346;18.562;2023-03-25T05:41:34;98905.64;;;5.88;100.00
57024;BME280;42916;54.346;18.562;2023-03-25T05:44:05;98912.05;;;5.95;100.00
57024;BME280;42916;54.346;18.562;2023-03-25T05:46:33;98912.48;;;6.01;100.00
57024;BME280;42916;54.346;18.562;2023-03-25T05:49:00;98914.34;;;6.06;100.00
57024;BME280;42916;54.346;18.562;2023-03-25T05:51:29;98914.16;;;6.11;100.00
57024;BME280;42916;54.346;18.562;2023-03-25T05:53:59;98916.94;;;6.16;100.00
57024;BME280;42916;54.346;18.562;2023-03-25T05:56:27;98917.63;;;6.23;100.00
57024;BME280;42916;54.346;18.562;2023-03-25T05:58:53;98923.70;;;6.30;100.00
57024;BME280;42916;54.346;18.562;2023-03-25T06:01:21;98925.13;;;6.37;100.00
57024;BME280;42916;54.346;18.562;2023-03-25T06:03:48;98927.65;;;6.46;100.00
57024;BME280;42916;54.346;18.562;2023-03-25T06:06:15;98931.52;;;6.54;100.00
57024;BME280;42916;54.346;18.562;2023-03-25T06:08:47;98934.32;;;6.64;100.00
57024;BME280;42916;54.346;18.562;2023-03-25T06:11:19;98938.20;;;6.79;100.00
57024;BME280;42916;54.346;18.562;2023-03-25T06:13:46;98936.92;;;6.92;100.00
57024;BME280;42916;54.346;18.562;2023-03-25T06:16:18;98940.47;;;7.03;100.00
57024;BME280;42916;54.346;18.562;2023-03-25T06:18:50;98941.02;;;7.18;100.00
57024;BME280;42916;54.346;18.562;2023-03-25T06:21:22;98940.51;;;7.44;100.00
57024;BME280;42916;54.346;18.562;2023-03-25T06:23:49;98939.31;;;7.62;100.00
57024;BME280;42916;54.346;18.562;2023-03-25T06:26:17;98937.63;;;7.67;100.00
57024;BME280;42916;54.346;18.562;2023-03-25T06:28:45;98931.73;;;7.69;100.00
57024;BME280;42916;54.346;18.562;2023-03-25T06:31:17;98933.14;;;7.70;100.00
57024;BME280;42916;54.346;18.562;2023-03-25T06:33:45;98932.98;;;7.70;100.00
57024;BME280;42916;54.346;18.562;2023-03-25T06:36:15;98935.58;;;7.70;100.00
57024;BME280;42916;54.346;18.562;2023-03-25T06:38:48;98936.00;;;7.72;100.00
57024;BME280;42916;54.346;18.562;2023-03-25T06:41:17;98935.73;;;7.77;100.00
57024;BME280;42916;54.346;18.562;2023-03-25T06:43:57;98936.11;;;7.81;100.00
57024;BME280;42916;54.346;18.562;2023-03-25T06:46:42;98936.96;;;7.86;100.00
57024;BME280;42916;54.346;18.562;2023-03-25T06:49:09;98927.42;;;7.93;100.00
57024;BME280;42916;54.346;18.562;2023-03-25T06:51:36;98925.67;;;7.98;100.00
57024;BME280;42916;54.346;18.562;2023-03-25T06:54:03;98926.54;;;8.02;100.00
57024;BME280;42916;54.346;18.562;2023-03-25T06:56:30;98927.06;;;8.06;100.00
57024;BME280;42916;54.346;18.562;2023-03-25T06:58:56;98933.39;;;8.10;100.00
57024;BME280;42916;54.346;18.562;2023-03-25T07:01:23;98931.39;;;8.13;100.00
57024;BME280;42916;54.346;18.562;2023-03-25T07:03:50;98933.37;;;8.19;100.00
57024;BME280;42916;54.346;18.562;2023-03-25T07:06:20;98933.41;;;8.23;100.00
57024;BME280;42916;54.346;18.562;2023-03-25T07:08:48;98933.61;;;8.30;100.00
57024;BME280;42916;54.346;18.562;2023-03-25T07:11:17;98941.29;;;8.37;100.00
57024;BME280;42916;54.346;18.562;2023-03-25T07:13:45;98945.27;;;8.46;100.00
57024;BME280;42916;54.346;18.562;2023-03-25T07:16:12;98944.25;;;8.59;100.00
57024;BME280;42916;54.346;18.562;2023-03-25T07:18:39;98939.48;;;8.82;100.00
57024;BME280;42916;54.346;18.562;2023-03-25T07:21:06;98934.82;;;8.92;99.90
57024;BME280;42916;54.346;18.562;2023-03-25T07:23:32;98933.58;;;8.91;99.80
57024;BME280;42916;54.346;18.562;2023-03-25T07:25:59;98932.35;;;8.86;99.65
57024;BME280;42916;54.346;18.562;2023-03-25T07:28:26;98937.19;;;8.85;99.95
57024;BME280;42916;54.346;18.562;2023-03-25T07:30:53;98935.59;;;8.91;100.00
57024;BME280;42916;54.346;18.562;2023-03-25T07:33:20;98932.93;;;8.99;100.00
57024;BME280;42916;54.346;18.562;2023-03-25T07:35:46;98931.04;;;9.07;99.04
57024;BME280;42916;54.346;18.562;2023-03-25T07:38:13;98922.30;;;9.16;99.14
57024;BME280;42916;54.346;18.562;2023-03-25T07:40:40;98925.26;;;9.28;99.34
57024;BME280;42916;54.346;18.562;2023-03-25T07:43:07;98921.34;;;9.37;98.75
57024;BME280;42916;54.346;18.562;2023-03-25T07:45:43;98921.61;;;9.49;98.85
57024;BME280;42916;54.346;18.562;2023-03-25T07:48:10;98923.60;;;9.59;98.90
57024;BME280;42916;54.346;18.562;2023-03-25T07:50:40;98922.16;;;9.68;98.35
57024;BME280;42916;54.346;18.562;2023-03-25T07:53:08;98922.70;;;9.74;97.60
57024;BME280;42916;54.346;18.562;2023-03-25T07:55:35;98916.45;;;9.79;96.96
57024;BME280;42916;54.346;18.562;2023-03-25T07:58:01;98908.19;;;9.80;96.78
57024;BME280;42916;54.346;18.562;2023-03-25T08:00:29;98912.95;;;9.82;95.37
57024;BME280;42916;54.346;18.562;2023-03-25T08:02:56;98912.18;;;9.84;95.06
57024;BME280;42916;54.346;18.562;2023-03-25T08:05:22;98910.13;;;9.83;94.52
57024;BME280;42916;54.346;18.562;2023-03-25T08:07:50;98911.36;;;9.85;94.16
57024;BME280;42916;54.346;18.562;2023-03-25T08:10:19;98899.98;;;9.88;93.87
57024;BME280;42916;54.346;18.562;2023-03-25T08:12:46;98900.68;;;9.93;94.13
57024;BME280;42916;54.346;18.562;2023-03-25T08:15:13;98908.99;;;9.98;93.71
57024;BME280;42916;54.346;18.562;2023-03-25T08:17:40;98905.23;;;10.04;93.93
57024;BME280;42916;54.346;18.562;2023-03-25T08:20:07;98902.83;;;10.14;94.18
57024;BME280;42916;54.346;18.562;2023-03-25T08:22:34;98899.07;;;10.22;93.62
57024;BME280;42916;54.346;18.562;2023-03-25T08:25:02;98901.04;;;10.30;92.79
57024;BME280;42916;54.346;18.562;2023-03-25T08:27:29;98902.58;;;10.36;92.61
57024;BME280;42916;54.346;18.562;2023-03-25T08:29:56;98903.55;;;10.49;93.22
57024;BME280;42916;54.346;18.562;2023-03-25T08:32:27;98899.84;;;10.58;91.80
57024;BME280;42916;54.346;18.562;2023-03-25T08:34:54;98902.02;;;10.70;92.40
57024;BME280;42916;54.346;18.562;2023-03-25T08:37:22;98900.21;;;10.86;92.23
57024;BME280;42916;54.346;18.562;2023-03-25T08:39:51;98898.90;;;10.94;90.55
57024;BME280;42916;54.346;18.562;2023-03-25T08:42:21;98903.66;;;10.97;89.74
57024;BME280;42916;54.346;18.562;2023-03-25T08:44:48;98902.84;;;11.04;90.28
57024;BME280;42916;54.346;18.562;2023-03-25T08:47:15;98898.67;;;11.17;90.79
57024;BME280;42916;54.346;18.562;2023-03-25T08:49:41;98901.32;;;11.33;90.65
57024;BME280;42916;54.346;18.562;2023-03-25T08:52:08;98907.69;;;11.43;89.47
57024;BME280;42916;54.346;18.562;2023-03-25T08:54:35;98908.02;;;11.50;89.24
57024;BME280;42916;54.346;18.562;2023-03-25T08:57:02;98905.92;;;11.55;88.73
57024;BME280;42916;54.346;18.562;2023-03-25T08:59:29;98906.66;;;11.56;88.44
57024;BME280;42916;54.346;18.562;2023-03-25T09:01:56;98906.94;;;11.56;87.91
57024;BME280;42916;54.346;18.562;2023-03-25T09:04:22;98908.67;;;11.53;87.42
57024;BME280;42916;54.346;18.562;2023-03-25T09:06:49;98910.02;;;11.51;86.85
57024;BME280;42916;54.346;18.562;2023-03-25T09:09:16;98910.04;;;11.46;86.40
57024;BME280;42916;54.346;18.562;2023-03-25T09:11:43;98910.27;;;11.42;86.25
57024;BME280;42916;54.346;18.562;2023-03-25T09:14:10;98904.14;;;11.40;86.16
57024;BME280;42916;54.346;18.562;2023-03-25T09:16:37;98897.70;;;11.39;85.78
57024;BME280;42916;54.346;18.562;2023-03-25T09:19:04;98900.35;;;11.39;85.61
57024;BME280;42916;54.346;18.562;2023-03-25T09:21:31;98900.80;;;11.39;85.32
57024;BME280;42916;54.346;18.562;2023-03-25T09:23:57;98899.79;;;11.37;84.92
57024;BME280;42916;54.346;18.562;2023-03-25T09:26:24;98893.05;;;11.39;84.91
57024;BME280;42916;54.346;18.562;2023-03-25T09:28:51;98895.90;;;11.48;85.22
57024;BME280;42916;54.346;18.562;2023-03-25T09:31:21;98894.80;;;11.58;85.38
57024;BME280;42916;54.346;18.562;2023-03-25T09:33:48;98893.33;;;11.65;85.25
57024;BME280;42916;54.346;18.562;2023-03-25T09:36:15;98895.33;;;11.71;84.74
57024;BME280;42916;54.346;18.562;2023-03-25T09:38:42;98896.73;;;11.76;84.62
57024;BME280;42916;54.346;18.562;2023-03-25T09:44:18;98899.27;;;11.93;84.53
57024;BME280;42916;54.346;18.562;2023-03-25T09:46:47;98897.20;;;12.06;84.51
57024;BME280;42916;54.346;18.562;2023-03-25T09:49:21;98900.95;;;12.12;84.02
57024;BME280;42916;54.346;18.562;2023-03-25T09:51:50;98897.90;;;12.22;84.20
57024;BME280;42916;54.346;18.562;2023-03-25T09:54:26;98895.77;;;12.34;83.54
57024;BME280;42916;54.346;18.562;2023-03-25T09:57:00;98900.64;;;12.39;83.10
57024;BME280;42916;54.346;18.562;2023-03-25T09:59:49;98896.93;;;12.41;82.06
57024;BME280;42916;54.346;18.562;2023-03-25T10:08:36;98887.89;;;12.54;81.46
57024;BME280;42916;54.346;18.562;2023-03-25T10:11:04;98891.96;;;12.64;81.41
57024;BME280;42916;54.346;18.562;2023-03-25T10:18:52;98869.88;;;12.81;79.75
57024;BME280;42916;54.346;18.562;2023-03-25T10:26:52;98874.27;;;13.02;77.85
57024;BME280;42916;54.346;18.562;2023-03-25T10:29:26;98872.42;;;12.97;76.59
57024;BME280;42916;54.346;18.562;2023-03-25T10:32:02;98864.45;;;12.90;76.47
57024;BME280;42916;54.346;18.562;2023-03-25T10:34:41;98857.08;;;12.78;75.21
57024;BME280;42916;54.346;18.562;2023-03-25T10:37:15;98855.50;;;12.60;75.46
57024;BME280;42916;54.346;18.562;2023-03-25T10:39:43;98847.61;;;12.47;75.72
57024;BME280;42916;54.346;18.562;2023-03-25T10:42:29;98845.96;;;12.32;75.78
57024;BME280;42916;54.346;18.562;2023-03-25T10:44:57;98853.00;;;12.16;76.18
57024;BME280;42916;54.346;18.562;2023-03-25T10:47:29;98860.14;;;11.99;76.47
57024;BME280;42916;54.346;18.562;2023-03-25T10:49:58;98892.70;;;11.76;75.75
57024;BME280;42916;54.346;18.562;2023-03-25T10:52:26;98910.53;;;11.17;78.83
57024;BME280;42916;54.346;18.562;2023-03-25T10:54:54;98912.64;;;10.42;80.86
57024;BME280;42916;54.346;18.562;2023-03-25T10:57:27;98895.30;;;9.77;83.68
57024;BME280;42916;54.346;18.562;2023-03-25T11:00:08;98898.35;;;9.33;84.89
57024;BME280;42916;54.346;18.562;2023-03-25T11:02:46;98896.75;;;8.99;88.16
57024;BME280;42916;54.346;18.562;2023-03-25T11:05:26;98897.48;;;8.78;89.80
57024;BME280;42916;54.346;18.562;2023-03-25T11:07:56;98887.10;;;8.65;91.03
57024;BME280;42916;54.346;18.562;2023-03-25T11:10:27;98887.38;;;8.61;91.64
57024;BME280;42916;54.346;18.562;2023-03-25T11:12:55;98881.55;;;8.64;92.80
57024;BME280;42916;54.346;18.562;2023-03-25T11:15:28;98875.63;;;8.78;93.89
57024;BME280;42916;54.346;18.562;2023-03-25T11:18:03;98868.13;;;8.96;94.60
57024;BME280;42916;54.346;18.562;2023-03-25T11:20:37;98860.91;;;9.13;94.88
57024;BME280;42916;54.346;18.562;2023-03-25T11:23:07;98854.58;;;9.29;95.47
57024;BME280;42916;54.346;18.562;2023-03-25T11:25:39;98854.65;;;9.45;95.62
57024;BME280;42916;54.346;18.562;2023-03-25T11:31:27;98839.27;;;9.65;95.97
57024;BME280;42916;54.346;18.562;2023-03-25T11:36:50;98829.51;;;9.78;95.61
57024;BME280;42916;54.346;18.562;2023-03-25T11:41:49;98825.56;;;9.83;96.47
57024;BME280;42916;54.346;18.562;2023-03-25T11:44:27;98827.23;;;9.84;96.34
57024;BME280;42916;54.346;18.562;2023-03-25T11:47:05;98822.60;;;9.99;97.48
57024;BME280;42916;54.346;18.562;2023-03-25T11:49:35;98831.39;;;10.21;98.05
57024;BME280;42916;54.346;18.562;2023-03-25T11:52:07;98834.04;;;10.46;97.80
57024;BME280;42916;54.346;18.562;2023-03-25T11:54:35;98831.95;;;10.71;97.49
57024;BME280;42916;54.346;18.562;2023-03-25T11:57:06;98830.89;;;10.88;96.57
57024;BME280;42916;54.346;18.562;2023-03-25T11:59:42;98826.46;;;11.19;98.03
57024;BME280;42916;54.346;18.562;2023-03-25T12:02:37;98830.97;;;11.48;95.82
57024;BME280;42916;54.346;18.562;2023-03-25T12:08:02;98835.26;;;11.70;93.28
57024;BME280;42916;54.346;18.562;2023-03-25T12:16:21;98824.98;;;12.42;90.93
57024;BME280;42916;54.346;18.562;2023-03-25T12:19:32;98827.88;;;12.83;88.73
57024;BME280;42916;54.346;18.562;2023-03-25T12:31:27;98823.17;;;13.20;82.20
57024;BME280;42916;54.346;18.562;2023-03-25T12:36:42;98819.73;;;12.91;81.95
57024;BME280;42916;54.346;18.562;2023-03-25T12:39:30;98817.85;;;12.91;80.99
57024;BME280;42916;54.346;18.562;2023-03-25T12:50:36;98805.59;;;13.36;79.00
57024;BME280;42916;54.346;18.562;2023-03-25T12:53:37;98801.18;;;13.42;79.00
57024;BME280;42916;54.346;18.562;2023-03-25T13:01:33;98797.48;;;13.14;77.98
57024;BME280;42916;54.346;18.562;2023-03-25T13:09:23;98795.40;;;13.12;77.83
57024;BME280;42916;54.346;18.562;2023-03-25T13:17:38;98784.89;;;13.40;75.33
57024;BME280;42916;54.346;18.562;2023-03-25T13:20:09;98786.40;;;13.41;76.07
57024;BME280;42916;54.346;18.562;2023-03-25T13:22:40;98786.90;;;13.45;76.29
57024;BME280;42916;54.346;18.562;2023-03-25T13:25:18;98782.49;;;13.42;76.63
57024;BME280;42916;54.346;18.562;2023-03-25T13:27:47;98780.84;;;13.53;76.83
57024;BME280;42916;54.346;18.562;2023-03-25T13:30:21;98786.42;;;13.59;76.40
57024;BME280;42916;54.346;18.562;2023-03-25T13:32:54;98787.30;;;13.53;74.98
57024;BME280;42916;54.346;18.562;2023-03-25T13:35:49;98780.11;;;13.41;74.93
57024;BME280;42916;54.346;18.562;2023-03-25T13:46:39;98775.71;;;12.78;75.60
57024;BME280;42916;54.346;18.562;2023-03-25T13:51:39;98773.99;;;12.43;75.63
57024;BME280;42916;54.346;18.562;2023-03-25T13:54:18;98776.55;;;12.27;76.17
57024;BME280;42916;54.346;18.562;2023-03-25T13:57:22;98786.06;;;12.10;76.70
57024;BME280;42916;54.346;18.562;2023-03-25T14:03:27;98835.68;;;11.04;73.28
57024;BME280;42916;54.346;18.562;2023-03-25T14:09:37;98827.21;;;9.85;77.05
57024;BME280;42916;54.346;18.562;2023-03-25T14:12:18;98822.60;;;9.54;78.64
57024;BME280;42916;54.346;18.562;2023-03-25T14:14:52;98829.07;;;9.36;79.72
57024;BME280;42916;54.346;18.562;2023-03-25T14:17:21;98826.30;;;9.24;80.61
57024;BME280;42916;54.346;18.562;2023-03-25T14:19:51;98809.76;;;9.17;81.29
57024;BME280;42916;54.346;18.562;2023-03-25T14:22:22;98810.22;;;9.08;81.82
57024;BME280;42916;54.346;18.562;2023-03-25T14:24:50;98807.02;;;9.09;82.32
57024;BME280;42916;54.346;18.562;2023-03-25T14:27:32;98806.21;;;9.14;82.57
57024;BME280;42916;54.346;18.562;2023-03-25T14:32:36;98793.91;;;10.20;84.55
57024;BME280;42916;54.346;18.562;2023-03-25T14:48:49;98790.58;;;13.09;74.29
57024;BME280;42916;54.346;18.562;2023-03-25T14:51:21;98795.04;;;13.21;73.27
57024;BME280;42916;54.346;18.562;2023-03-25T14:53:51;98798.06;;;13.02;70.91
57024;BME280;42916;54.346;18.562;2023-03-25T14:56:24;98795.45;;;12.67;70.00
57024;BME280;42916;54.346;18.562;2023-03-25T14:58:58;98798.17;;;12.28;70.40
57024;BME280;42916;54.346;18.562;2023-03-25T15:01:33;98798.40;;;12.04;71.54
57024;BME280;42916;54.346;18.562;2023-03-25T15:04:09;98799.39;;;11.84;71.50
57024;BME280;42916;54.346;18.562;2023-03-25T15:06:39;98796.10;;;11.78;72.47
57024;BME280;42916;54.346;18.562;2023-03-25T15:09:09;98796.64;;;12.22;72.98
57024;BME280;42916;54.346;18.562;2023-03-25T15:11:41;98794.02;;;12.51;70.15
57024;BME280;42916;54.346;18.562;2023-03-25T15:14:15;98793.59;;;12.28;70.26
57024;BME280;42916;54.346;18.562;2023-03-25T15:19:13;98793.52;;;11.83;69.77
57024;BME280;42916;54.346;18.562;2023-03-25T15:24:32;98794.41;;;11.46;71.72
57024;BME280;42916;54.346;18.562;2023-03-25T15:27:06;98795.13;;;11.49;72.22
57024;BME280;42916;54.346;18.562;2023-03-25T15:29:38;98802.66;;;11.39;72.02
57024;BME280;42916;54.346;18.562;2023-03-25T15:52:04;98805.48;;;10.77;74.16
57024;BME280;42916;54.346;18.562;2023-03-25T15:55:04;98810.98;;;10.68;74.33
57024;BME280;42916;54.346;18.562;2023-03-25T15:57:49;98815.83;;;10.61;74.80
57024;BME280;42916;54.346;18.562;2023-03-25T16:00:30;98820.40;;;10.54;75.18
57024;BME280;42916;54.346;18.562;2023-03-25T16:03:22;98829.90;;;10.46;75.63